sensor_id;sensor_type;location;lat;lon;timestamp;temperature;humidity
3069;DHT22;1545;51.728;8.796;2023-09-19T00:00:38;16.50;97.20
3069;DHT22;1545;51.728;8.796;2023-09-19T00:03:05;16.50;97.30
3069;DHT22;1545;51.728;8.796;2023-09-19T00:05:36;16.50;97.40
3069;DHT22;1545;51.728;8.796;2023-09-19T00:08:02;16.50;97.40
3069;DHT22;1545;51.728;8.796;2023-09-19T00:10:32;16.40;97.20
3069;DHT22;1545;51.728;8.796;2023-09-19T00:13:00;16.40;97.40
3069;DHT22;1545;51.728;8.796;2023-09-19T00:15:37;16.30;97.70
3069;DHT22;1545;51.728;8.796;2023-09-19T00:18:04;16.20;97.80
3069;DHT22;1545;51.728;8.796;2023-09-19T00:20:32;16.20;97.80
3069;DHT22;1545;51.728;8.796;2023-09-19T00:22:58;16.10;97.90
3069;DHT22;1545;51.728;8.796;2023-09-19T00:25:31;16.10;98.00
3069;DHT22;1545;51.728;8.796;2023-09-19T00:27:57;16.00;98.20
3069;DHT22;1545;51.728;8.796;2023-09-19T00:30:23;16.00;98.30
3069;DHT22;1545;51.728;8.796;2023-09-19T00:32:50;16.00;98.40
3069;DHT22;1545;51.728;8.796;2023-09-19T00:35:23;15.90;98.50
3069;DHT22;1545;51.728;8.796;2023-09-19T00:37:53;15.90;98.80
3069;DHT22;1545;51.728;8.796;2023-09-19T00:40:19;15.80;98.80
3069;DHT22;1545;51.728;8.796;2023-09-19T00:42:47;15.80;98.70
3069;DHT22;1545;51.728;8.796;2023-09-19T00:45:15;15.80;98.60
3069;DHT22;1545;51.728;8.796;2023-09-19T00:47:45;15.80;98.80
3069;DHT22;1545;51.728;8.796;2023-09-19T00:50:12;15.90;98.70
3069;DHT22;1545;51.728;8.796;2023-09-19T00:52:40;15.90;98.80
3069;DHT22;1545;51.728;8.796;2023-09-19T00:55:08;16.00;98.50
3069;DHT22;1545;51.728;8.796;2023-09-19T00:57:35;16.10;98.10
3069;DHT22;1545;51.728;8.796;2023-09-19T01:00:02;16.10;97.80
3069;DHT22;1545;51.728;8.796;2023-09-19T01:02:33;16.10;97.90
3069;DHT22;1545;51.728;8.796;2023-09-19T01:04:59;16.10;97.60
3069;DHT22;1545;51.728;8.796;2023-09-19T01:07:30;16.10;97.60
3069;DHT22;1545;51.728;8.796;2023-09-19T01:09:57;16.00;97.60
3069;DHT22;1545;51.728;8.796;2023-09-19T01:12:37;15.90;97.60
3069;DHT22;1545;51.728;8.796;2023-09-19T01:15:28;15.90;97.20
3069;DHT22;1545;51.728;8.796;2023-09-19T01:28:53;15.80;96.80
3069;DHT22;1545;51.728;8.796;2023-09-19T01:31:22;15.90;96.60
3069;DHT22;1545;51.728;8.796;2023-09-19T01:34:00;15.90;96.40
3069;DHT22;1545;51.728;8.796;2023-09-19T01:36:27;15.80;96.40
3069;DHT22;1545;51.728;8.796;2023-09-19T01:38:55;15.70;96.60
3069;DHT22;1545;51.728;8.796;2023-09-19T01:41:35;15.70;97.00
3069;DHT22;1545;51.728;8.796;2023-09-19T01:44:06;15.50;97.60
3069;DHT22;1545;51.728;8.796;2023-09-19T01:46:39;15.50;98.00
3069;DHT22;1545;51.728;8.796;2023-09-19T01:49:18;15.50;98.60
3069;DHT22;1545;51.728;8.796;2023-09-19T01:51:56;15.60;98.80
3069;DHT22;1545;51.728;8.796;2023-09-19T01:54:27;15.70;98.60
3069;DHT22;1545;51.728;8.796;2023-09-19T01:57:07;15.80;97.80
3069;DHT22;1545;51.728;8.796;2023-09-19T01:59:54;15.90;97.10
3069;DHT22;1545;51.728;8.796;2023-09-19T02:02:22;16.00;95.70
3069;DHT22;1545;51.728;8.796;2023-09-19T02:04:49;16.00;94.60
3069;DHT22;1545;51.728;8.796;2023-09-19T02:07:16;16.10;93.60
3069;DHT22;1545;51.728;8.796;2023-09-19T02:09:42;16.20;92.90
3069;DHT22;1545;51.728;8.796;2023-09-19T02:12:09;16.30;92.70
3069;DHT22;1545;51.728;8.796;2023-09-19T02:14:34;16.30;92.90
3069;DHT22;1545;51.728;8.796;2023-09-19T02:17:04;16.30;92.30
3069;DHT22;1545;51.728;8.796;2023-09-19T02:19:36;16.30;92.10
3069;DHT22;1545;51.728;8.796;2023-09-19T02:22:04;16.30;91.70
3069;DHT22;1545;51.728;8.796;2023-09-19T02:24:33;16.30;91.40
3069;DHT22;1545;51.728;8.796;2023-09-19T02:26:58;16.40;91.60
3069;DHT22;1545;51.728;8.796;2023-09-19T02:29:25;16.30;91.50
3069;DHT22;1545;51.728;8.796;2023-09-19T02:31:52;16.30;90.80
3069;DHT22;1545;51.728;8.796;2023-09-19T02:34:18;16.30;91.00
3069;DHT22;1545;51.728;8.796;2023-09-19T02:36:44;16.30;91.40
3069;DHT22;1545;51.728;8.796;2023-09-19T02:39:10;16.20;91.10
3069;DHT22;1545;51.728;8.796;2023-09-19T02:41:36;16.20;90.90
3069;DHT22;1545;51.728;8.796;2023-09-19T02:44:02;16.20;91.20
3069;DHT22;1545;51.728;8.796;2023-09-19T02:46:28;16.10;91.20
3069;DHT22;1545;51.728;8.796;2023-09-19T02:48:53;16.20;91.40
3069;DHT22;1545;51.728;8.796;2023-09-19T02:51:20;16.10;91.60
3069;DHT22;1545;51.728;8.796;2023-09-19T02:53:46;16.10;91.50
3069;DHT22;1545;51.728;8.796;2023-09-19T02:56:13;16.10;91.20
3069;DHT22;1545;51.728;8.796;2023-09-19T02:58:39;16.00;91.20
3069;DHT22;1545;51.728;8.796;2023-09-19T03:01:09;16.00;91.20
3069;DHT22;1545;51.728;8.796;2023-09-19T03:03:35;15.90;91.10
3069;DHT22;1545;51.728;8.796;2023-09-19T03:06:02;15.90;91.60
3069;DHT22;1545;51.728;8.796;2023-09-19T03:08:29;15.80;91.60
3069;DHT22;1545;51.728;8.796;2023-09-19T03:10:54;15.70;91.70
3069;DHT22;1545;51.728;8.796;2023-09-19T03:13:20;15.70;91.90
3069;DHT22;1545;51.728;8.796;2023-09-19T03:15:45;15.60;92.20
3069;DHT22;1545;51.728;8.796;2023-09-19T03:18:15;15.60;92.70
3069;DHT22;1545;51.728;8.796;2023-09-19T03:20:41;15.50;92.90
3069;DHT22;1545;51.728;8.796;2023-09-19T03:23:06;15.50;92.70
3069;DHT22;1545;51.728;8.796;2023-09-19T03:25:36;15.60;92.20
3069;DHT22;1545;51.728;8.796;2023-09-19T03:28:03;15.60;92.00
3069;DHT22;1545;51.728;8.796;2023-09-19T03:30:31;15.60;91.80
3069;DHT22;1545;51.728;8.796;2023-09-19T03:32:58;15.60;92.00
3069;DHT22;1545;51.728;8.796;2023-09-19T03:35:23;15.60;91.70
3069;DHT22;1545;51.728;8.796;2023-09-19T03:37:49;15.60;92.10
3069;DHT22;1545;51.728;8.796;2023-09-19T03:40:14;15.70;91.10
3069;DHT22;1545;51.728;8.796;2023-09-19T03:42:41;15.60;91.70
3069;DHT22;1545;51.728;8.796;2023-09-19T03:45:08;15.50;91.80
3069;DHT22;1545;51.728;8.796;2023-09-19T03:47:38;15.40;91.90
3069;DHT22;1545;51.728;8.796;2023-09-19T03:50:05;15.30;92.20
3069;DHT22;1545;51.728;8.796;2023-09-19T03:52:30;15.20;92.50
3069;DHT22;1545;51.728;8.796;2023-09-19T03:54:56;15.10;92.50
3069;DHT22;1545;51.728;8.796;2023-09-19T03:57:21;15.10;92.60
3069;DHT22;1545;51.728;8.796;2023-09-19T03:59:47;15.00;92.90
3069;DHT22;1545;51.728;8.796;2023-09-19T04:02:13;14.90;92.70
3069;DHT22;1545;51.728;8.796;2023-09-19T04:04:48;14.90;92.60
3069;DHT22;1545;51.728;8.796;2023-09-19T04:07:13;14.90;92.80
3069;DHT22;1545;51.728;8.796;2023-09-19T04:09:39;14.90;92.50
3069;DHT22;1545;51.728;8.796;2023-09-19T04:12:05;14.80;92.40
3069;DHT22;1545;51.728;8.796;2023-09-19T04:14:30;14.80;92.10
3069;DHT22;1545;51.728;8.796;2023-09-19T04:16:56;14.70;91.90
3069;DHT22;1545;51.728;8.796;2023-09-19T04:19:22;14.70;91.90
3069;DHT22;1545;51.728;8.796;2023-09-19T04:21:47;14.70;91.80
3069;DHT22;1545;51.728;8.796;2023-09-19T04:24:13;14.80;91.40
3069;DHT22;1545;51.728;8.796;2023-09-19T04:26:39;14.80;91.20
3069;DHT22;1545;51.728;8.796;2023-09-19T04:29:04;14.70;91.20
3069;DHT22;1545;51.728;8.796;2023-09-19T04:31:31;14.80;90.70
3069;DHT22;1545;51.728;8.796;2023-09-19T04:33:57;14.70;90.60
3069;DHT22;1545;51.728;8.796;2023-09-19T04:36:24;14.70;90.50
3069;DHT22;1545;51.728;8.796;2023-09-19T04:38:50;14.70;90.80
3069;DHT22;1545;51.728;8.796;2023-09-19T04:41:15;14.60;91.10
3069;DHT22;1545;51.728;8.796;2023-09-19T04:43:41;14.60;91.10
3069;DHT22;1545;51.728;8.796;2023-09-19T04:46:06;14.50;91.60
3069;DHT22;1545;51.728;8.796;2023-09-19T04:48:32;14.40;91.30
3069;DHT22;1545;51.728;8.796;2023-09-19T04:51:00;14.40;91.00
3069;DHT22;1545;51.728;8.796;2023-09-19T04:53:25;14.30;91.30
3069;DHT22;1545;51.728;8.796;2023-09-19T04:55:51;14.30;91.20
3069;DHT22;1545;51.728;8.796;2023-09-19T04:58:21;14.30;91.20
3069;DHT22;1545;51.728;8.796;2023-09-19T05:00:47;14.30;91.00
3069;DHT22;1545;51.728;8.796;2023-09-19T05:03:12;14.30;91.20
3069;DHT22;1545;51.728;8.796;2023-09-19T05:05:38;14.20;91.30
3069;DHT22;1545;51.728;8.796;2023-09-19T05:08:04;14.30;91.10
3069;DHT22;1545;51.728;8.796;2023-09-19T05:10:32;14.30;90.80
3069;DHT22;1545;51.728;8.796;2023-09-19T05:12:57;14.30;91.00
3069;DHT22;1545;51.728;8.796;2023-09-19T05:15:23;14.30;90.70
3069;DHT22;1545;51.728;8.796;2023-09-19T05:17:49;14.30;90.70
3069;DHT22;1545;51.728;8.796;2023-09-19T05:20:16;14.20;90.10
3069;DHT22;1545;51.728;8.796;2023-09-19T05:22:42;14.10;90.30
3069;DHT22;1545;51.728;8.796;2023-09-19T05:25:09;14.10;90.40
3069;DHT22;1545;51.728;8.796;2023-09-19T05:27:35;14.00;90.80
3069;DHT22;1545;51.728;8.796;2023-09-19T05:30:01;14.00;90.80
3069;DHT22;1545;51.728;8.796;2023-09-19T05:32:26;13.90;91.20
3069;DHT22;1545;51.728;8.796;2023-09-19T05:34:52;13.90;90.80
3069;DHT22;1545;51.728;8.796;2023-09-19T05:37:19;13.90;90.80
3069;DHT22;1545;51.728;8.796;2023-09-19T05:39:45;13.90;90.80
3069;DHT22;1545;51.728;8.796;2023-09-19T05:42:10;13.90;90.50
3069;DHT22;1545;51.728;8.796;2023-09-19T05:44:36;14.00;90.80
3069;DHT22;1545;51.728;8.796;2023-09-19T05:47:02;14.00;90.40
3069;DHT22;1545;51.728;8.796;2023-09-19T05:49:28;14.00;89.90
3069;DHT22;1545;51.728;8.796;2023-09-19T05:51:54;14.10;89.50
3069;DHT22;1545;51.728;8.796;2023-09-19T05:54:21;14.20;89.30
3069;DHT22;1545;51.728;8.796;2023-09-19T05:56:47;14.30;88.80
3069;DHT22;1545;51.728;8.796;2023-09-19T05:59:13;14.30;88.50
3069;DHT22;1545;51.728;8.796;2023-09-19T06:01:42;14.50;87.90
3069;DHT22;1545;51.728;8.796;2023-09-19T06:04:08;14.50;87.90
3069;DHT22;1545;51.728;8.796;2023-09-19T06:06:33;14.60;87.60
3069;DHT22;1545;51.728;8.796;2023-09-19T06:09:02;14.60;87.10
3069;DHT22;1545;51.728;8.796;2023-09-19T06:11:27;14.70;87.30
3069;DHT22;1545;51.728;8.796;2023-09-19T06:13:54;14.60;87.00
3069;DHT22;1545;51.728;8.796;2023-09-19T06:16:20;14.60;87.30
3069;DHT22;1545;51.728;8.796;2023-09-19T06:18:45;14.50;87.20
3069;DHT22;1545;51.728;8.796;2023-09-19T06:21:11;14.50;86.60
3069;DHT22;1545;51.728;8.796;2023-09-19T06:23:37;14.50;86.90
3069;DHT22;1545;51.728;8.796;2023-09-19T06:26:03;14.60;86.80
3069;DHT22;1545;51.728;8.796;2023-09-19T06:28:32;14.60;86.80
3069;DHT22;1545;51.728;8.796;2023-09-19T06:30:58;14.70;86.30
3069;DHT22;1545;51.728;8.796;2023-09-19T06:33:24;14.80;86.40
3069;DHT22;1545;51.728;8.796;2023-09-19T06:35:50;14.90;85.90
3069;DHT22;1545;51.728;8.796;2023-09-19T06:38:18;15.00;85.70
3069;DHT22;1545;51.728;8.796;2023-09-19T06:40:44;15.20;85.10
3069;DHT22;1545;51.728;8.796;2023-09-19T06:43:10;15.40;84.50
3069;DHT22;1545;51.728;8.796;2023-09-19T06:45:36;15.60;83.90
3069;DHT22;1545;51.728;8.796;2023-09-19T06:48:02;15.80;83.50
3069;DHT22;1545;51.728;8.796;2023-09-19T06:50:28;15.90;82.90
3069;DHT22;1545;51.728;8.796;2023-09-19T06:52:56;16.00;82.50
3069;DHT22;1545;51.728;8.796;2023-09-19T06:55:25;16.20;82.10
3069;DHT22;1545;51.728;8.796;2023-09-19T06:57:53;16.20;81.10
3069;DHT22;1545;51.728;8.796;2023-09-19T07:00:22;16.20;81.40
3069;DHT22;1545;51.728;8.796;2023-09-19T07:02:58;16.30;81.30
3069;DHT22;1545;51.728;8.796;2023-09-19T07:05:29;16.40;81.40
3069;DHT22;1545;51.728;8.796;2023-09-19T07:08:01;16.50;81.10
3069;DHT22;1545;51.728;8.796;2023-09-19T07:10:27;16.60;80.60
3069;DHT22;1545;51.728;8.796;2023-09-19T07:12:57;16.70;80.20
3069;DHT22;1545;51.728;8.796;2023-09-19T07:15:24;16.80;80.20
3069;DHT22;1545;51.728;8.796;2023-09-19T07:17:53;16.90;79.90
3069;DHT22;1545;51.728;8.796;2023-09-19T07:20:20;16.90;80.50
3069;DHT22;1545;51.728;8.796;2023-09-19T07:22:46;16.90;80.40
3069;DHT22;1545;51.728;8.796;2023-09-19T07:25:13;16.90;80.30
3069;DHT22;1545;51.728;8.796;2023-09-19T07:27:43;17.00;80.00
3069;DHT22;1545;51.728;8.796;2023-09-19T07:30:09;17.10;80.10
3069;DHT22;1545;51.728;8.796;2023-09-19T07:32:35;17.00;80.00
3069;DHT22;1545;51.728;8.796;2023-09-19T07:35:05;17.10;80.40
3069;DHT22;1545;51.728;8.796;2023-09-19T07:37:34;17.20;79.40
3069;DHT22;1545;51.728;8.796;2023-09-19T07:40:00;17.30;80.00
3069;DHT22;1545;51.728;8.796;2023-09-19T07:42:26;17.40;79.60
3069;DHT22;1545;51.728;8.796;2023-09-19T07:44:52;17.30;79.30
3069;DHT22;1545;51.728;8.796;2023-09-19T07:47:19;17.30;79.60
3069;DHT22;1545;51.728;8.796;2023-09-19T07:49:49;17.40;79.90
3069;DHT22;1545;51.728;8.796;2023-09-19T07:52:15;17.30;79.60
3069;DHT22;1545;51.728;8.796;2023-09-19T07:54:41;17.30;79.70
3069;DHT22;1545;51.728;8.796;2023-09-19T07:57:09;17.30;79.70
3069;DHT22;1545;51.728;8.796;2023-09-19T07:59:35;17.50;79.80
3069;DHT22;1545;51.728;8.796;2023-09-19T08:02:01;17.70;79.60
3069;DHT22;1545;51.728;8.796;2023-09-19T08:04:30;17.80;79.10
3069;DHT22;1545;51.728;8.796;2023-09-19T08:06:58;17.90;79.10
3069;DHT22;1545;51.728;8.796;2023-09-19T08:09:24;18.10;78.70
3069;DHT22;1545;51.728;8.796;2023-09-19T08:11:49;18.10;78.50
3069;DHT22;1545;51.728;8.796;2023-09-19T08:14:16;18.30;78.50
3069;DHT22;1545;51.728;8.796;2023-09-19T08:16:41;18.40;78.20
3069;DHT22;1545;51.728;8.796;2023-09-19T08:19:09;18.50;78.40
3069;DHT22;1545;51.728;8.796;2023-09-19T08:21:35;18.70;78.10
3069;DHT22;1545;51.728;8.796;2023-09-19T08:24:02;18.80;77.80
3069;DHT22;1545;51.728;8.796;2023-09-19T08:26:30;18.90;77.80
3069;DHT22;1545;51.728;8.796;2023-09-19T08:28:56;19.10;77.40
3069;DHT22;1545;51.728;8.796;2023-09-19T08:31:22;19.10;77.30
3069;DHT22;1545;51.728;8.796;2023-09-19T08:33:49;18.80;77.70
3069;DHT22;1545;51.728;8.796;2023-09-19T08:36:16;19.00;77.80
3069;DHT22;1545;51.728;8.796;2023-09-19T08:38:42;19.10;77.50
3069;DHT22;1545;51.728;8.796;2023-09-19T08:41:08;19.30;77.50
3069;DHT22;1545;51.728;8.796;2023-09-19T08:43:34;19.50;76.70
3069;DHT22;1545;51.728;8.796;2023-09-19T08:46:15;19.70;76.40
3069;DHT22;1545;51.728;8.796;2023-09-19T08:48:57;19.90;76.10
3069;DHT22;1545;51.728;8.796;2023-09-19T08:51:45;20.10;75.50
3069;DHT22;1545;51.728;8.796;2023-09-19T08:54:23;20.10;75.60
3069;DHT22;1545;51.728;8.796;2023-09-19T08:56:53;20.30;75.50
3069;DHT22;1545;51.728;8.796;2023-09-19T08:59:22;20.40;75.20
3069;DHT22;1545;51.728;8.796;2023-09-19T09:01:53;20.40;75.10
3069;DHT22;1545;51.728;8.796;2023-09-19T09:04:19;20.40;75.20
3069;DHT22;1545;51.728;8.796;2023-09-19T09:06:46;20.30;74.80
3069;DHT22;1545;51.728;8.796;2023-09-19T09:09:16;20.10;75.50
3069;DHT22;1545;51.728;8.796;2023-09-19T09:11:42;20.10;75.30
3069;DHT22;1545;51.728;8.796;2023-09-19T09:14:07;20.10;75.60
3069;DHT22;1545;51.728;8.796;2023-09-19T09:16:34;19.90;76.10
3069;DHT22;1545;51.728;8.796;2023-09-19T09:19:00;19.90;76.60
3069;DHT22;1545;51.728;8.796;2023-09-19T09:21:26;20.00;76.00
3069;DHT22;1545;51.728;8.796;2023-09-19T09:23:51;20.10;75.50
3069;DHT22;1545;51.728;8.796;2023-09-19T09:29:04;20.00;75.90
3069;DHT22;1545;51.728;8.796;2023-09-19T09:31:29;20.00;75.90
3069;DHT22;1545;51.728;8.796;2023-09-19T09:33:56;19.90;76.10
3069;DHT22;1545;51.728;8.796;2023-09-19T09:36:39;19.80;75.10
3069;DHT22;1545;51.728;8.796;2023-09-19T09:39:07;19.70;76.00
3069;DHT22;1545;51.728;8.796;2023-09-19T09:41:43;19.70;76.00
3069;DHT22;1545;51.728;8.796;2023-09-19T09:44:16;19.80;75.80
3069;DHT22;1545;51.728;8.796;2023-09-19T09:46:46;19.80;75.50
3069;DHT22;1545;51.728;8.796;2023-09-19T09:49:24;19.70;75.30
3069;DHT22;1545;51.728;8.796;2023-09-19T09:52:03;19.80;75.00
3069;DHT22;1545;51.728;8.796;2023-09-19T09:54:33;19.60;75.70
3069;DHT22;1545;51.728;8.796;2023-09-19T09:57:03;19.60;75.60
3069;DHT22;1545;51.728;8.796;2023-09-19T09:59:55;19.60;75.30
3069;DHT22;1545;51.728;8.796;2023-09-19T10:02:30;19.60;74.40
3069;DHT22;1545;51.728;8.796;2023-09-19T10:05:19;19.50;74.60
3069;DHT22;1545;51.728;8.796;2023-09-19T10:07:49;19.40;74.90
3069;DHT22;1545;51.728;8.796;2023-09-19T10:10:34;19.60;75.00
3069;DHT22;1545;51.728;8.796;2023-09-19T10:13:19;19.80;74.70
3069;DHT22;1545;51.728;8.796;2023-09-19T10:15:49;19.70;74.30
3069;DHT22;1545;51.728;8.796;2023-09-19T10:18:25;19.70;73.60
3069;DHT22;1545;51.728;8.796;2023-09-19T10:20:51;19.70;73.70
3069;DHT22;1545;51.728;8.796;2023-09-19T10:23:19;19.80;73.20
3069;DHT22;1545;51.728;8.796;2023-09-19T10:25:49;19.90;73.30
3069;DHT22;1545;51.728;8.796;2023-09-19T10:28:16;20.00;73.50
3069;DHT22;1545;51.728;8.796;2023-09-19T10:30:47;20.10;73.60
3069;DHT22;1545;51.728;8.796;2023-09-19T10:33:16;20.10;72.80
3069;DHT22;1545;51.728;8.796;2023-09-19T10:35:44;20.20;72.60
3069;DHT22;1545;51.728;8.796;2023-09-19T10:38:11;20.20;72.20
3069;DHT22;1545;51.728;8.796;2023-09-19T10:40:38;20.30;71.80
3069;DHT22;1545;51.728;8.796;2023-09-19T10:43:18;20.40;71.70
3069;DHT22;1545;51.728;8.796;2023-09-19T10:45:45;20.50;71.60
3069;DHT22;1545;51.728;8.796;2023-09-19T10:48:12;20.80;71.30
3069;DHT22;1545;51.728;8.796;2023-09-19T10:50:50;21.10;70.80
3069;DHT22;1545;51.728;8.796;2023-09-19T10:53:17;21.20;69.90
3069;DHT22;1545;51.728;8.796;2023-09-19T10:56:16;21.10;69.40
3069;DHT22;1545;51.728;8.796;2023-09-19T10:58:43;21.10;69.10
3069;DHT22;1545;51.728;8.796;2023-09-19T11:01:11;21.30;68.30
3069;DHT22;1545;51.728;8.796;2023-09-19T11:03:43;21.10;67.40
3069;DHT22;1545;51.728;8.796;2023-09-19T11:06:15;21.00;67.70
3069;DHT22;1545;51.728;8.796;2023-09-19T11:09:03;20.90;67.60
3069;DHT22;1545;51.728;8.796;2023-09-19T11:30:51;21.20;68.40
3069;DHT22;1545;51.728;8.796;2023-09-19T11:33:30;21.40;67.40
3069;DHT22;1545;51.728;8.796;2023-09-19T11:35:59;21.40;67.60
3069;DHT22;1545;51.728;8.796;2023-09-19T11:43:52;21.40;66.90
3069;DHT22;1545;51.728;8.796;2023-09-19T11:46:20;21.40;67.30
3069;DHT22;1545;51.728;8.796;2023-09-19T11:48:53;21.20;67.20
3069;DHT22;1545;51.728;8.796;2023-09-19T11:51:21;21.10;68.70
3069;DHT22;1545;51.728;8.796;2023-09-19T11:53:57;21.20;66.90
3069;DHT22;1545;51.728;8.796;2023-09-19T11:56:25;21.10;67.50
3069;DHT22;1545;51.728;8.796;2023-09-19T11:58:54;21.20;67.90
3069;DHT22;1545;51.728;8.796;2023-09-19T12:01:29;21.10;68.00
3069;DHT22;1545;51.728;8.796;2023-09-19T12:03:57;20.90;67.90
3069;DHT22;1545;51.728;8.796;2023-09-19T12:06:24;20.70;68.40
3069;DHT22;1545;51.728;8.796;2023-09-19T12:08:50;20.40;68.60
3069;DHT22;1545;51.728;8.796;2023-09-19T12:11:19;20.40;69.50
3069;DHT22;1545;51.728;8.796;2023-09-19T12:13:47;20.60;69.20
3069;DHT22;1545;51.728;8.796;2023-09-19T12:16:18;20.50;68.70
3069;DHT22;1545;51.728;8.796;2023-09-19T12:18:47;20.50;69.00
3069;DHT22;1545;51.728;8.796;2023-09-19T12:21:25;20.60;69.20
3069;DHT22;1545;51.728;8.796;2023-09-19T12:26:23;21.00;68.70
3069;DHT22;1545;51.728;8.796;2023-09-19T12:28:49;21.40;68.60
3069;DHT22;1545;51.728;8.796;2023-09-19T12:31:18;21.50;67.30
3069;DHT22;1545;51.728;8.796;2023-09-19T12:33:45;21.30;67.70
3069;DHT22;1545;51.728;8.796;2023-09-19T12:36:23;21.40;68.20
3069;DHT22;1545;51.728;8.796;2023-09-19T12:38:55;21.50;66.30
3069;DHT22;1545;51.728;8.796;2023-09-19T12:41:21;21.40;66.00
3069;DHT22;1545;51.728;8.796;2023-09-19T12:43:47;21.30;66.20
3069;DHT22;1545;51.728;8.796;2023-09-19T12:46:13;21.30;66.70
3069;DHT22;1545;51.728;8.796;2023-09-19T12:48:40;21.40;68.10
3069;DHT22;1545;51.728;8.796;2023-09-19T12:51:12;21.60;67.70
3069;DHT22;1545;51.728;8.796;2023-09-19T12:53:43;21.60;66.80
3069;DHT22;1545;51.728;8.796;2023-09-19T12:56:10;21.60;66.70
3069;DHT22;1545;51.728;8.796;2023-09-19T12:58:55;21.50;66.50
3069;DHT22;1545;51.728;8.796;2023-09-19T13:01:22;21.60;66.50
3069;DHT22;1545;51.728;8.796;2023-09-19T13:04:12;21.60;66.60
3069;DHT22;1545;51.728;8.796;2023-09-19T13:06:40;21.40;67.00
3069;DHT22;1545;51.728;8.796;2023-09-19T13:09:09;21.40;67.20
3069;DHT22;1545;51.728;8.796;2023-09-19T13:11:36;21.40;66.80
3069;DHT22;1545;51.728;8.796;2023-09-19T13:14:25;21.30;66.90
3069;DHT22;1545;51.728;8.796;2023-09-19T13:17:04;21.10;66.70
3069;DHT22;1545;51.728;8.796;2023-09-19T13:25:01;21.10;67.90
3069;DHT22;1545;51.728;8.796;2023-09-19T13:27:29;21.30;66.30
3069;DHT22;1545;51.728;8.796;2023-09-19T13:29:54;21.20;66.80
3069;DHT22;1545;51.728;8.796;2023-09-19T13:32:20;21.20;66.90
3069;DHT22;1545;51.728;8.796;2023-09-19T13:34:45;21.10;66.50
3069;DHT22;1545;51.728;8.796;2023-09-19T13:37:11;21.10;67.90
3069;DHT22;1545;51.728;8.796;2023-09-19T13:39:38;21.10;67.80
3069;DHT22;1545;51.728;8.796;2023-09-19T13:42:08;21.10;67.30
3069;DHT22;1545;51.728;8.796;2023-09-19T13:44:35;20.90;68.40
3069;DHT22;1545;51.728;8.796;2023-09-19T13:47:00;21.00;68.70
3069;DHT22;1545;51.728;8.796;2023-09-19T13:49:27;21.00;68.60
3069;DHT22;1545;51.728;8.796;2023-09-19T13:51:54;21.20;68.70
3069;DHT22;1545;51.728;8.796;2023-09-19T13:54:20;21.30;68.70
3069;DHT22;1545;51.728;8.796;2023-09-19T13:56:46;21.30;69.00
3069;DHT22;1545;51.728;8.796;2023-09-19T13:59:11;21.30;68.70
3069;DHT22;1545;51.728;8.796;2023-09-19T14:01:37;21.50;68.40
3069;DHT22;1545;51.728;8.796;2023-09-19T14:04:02;21.50;67.60
3069;DHT22;1545;51.728;8.796;2023-09-19T14:06:28;21.50;67.80
3069;DHT22;1545;51.728;8.796;2023-09-19T14:08:53;21.50;68.30
3069;DHT22;1545;51.728;8.796;2023-09-19T14:11:19;21.80;68.10
3069;DHT22;1545;51.728;8.796;2023-09-19T14:13:44;21.90;66.30
3069;DHT22;1545;51.728;8.796;2023-09-19T14:16:13;21.70;66.80
3069;DHT22;1545;51.728;8.796;2023-09-19T14:18:39;21.60;67.20
3069;DHT22;1545;51.728;8.796;2023-09-19T14:21:05;21.50;67.60
3069;DHT22;1545;51.728;8.796;2023-09-19T14:23:35;21.50;68.30
3069;DHT22;1545;51.728;8.796;2023-09-19T14:26:01;21.40;67.70
3069;DHT22;1545;51.728;8.796;2023-09-19T14:28:27;21.40;68.40
3069;DHT22;1545;51.728;8.796;2023-09-19T14:30:54;21.50;68.50
3069;DHT22;1545;51.728;8.796;2023-09-19T14:33:19;21.60;67.30
3069;DHT22;1545;51.728;8.796;2023-09-19T14:35:45;21.50;67.50
3069;DHT22;1545;51.728;8.796;2023-09-19T14:38:10;21.50;67.30
3069;DHT22;1545;51.728;8.796;2023-09-19T14:40:36;21.50;68.20
3069;DHT22;1545;51.728;8.796;2023-09-19T14:43:02;21.50;67.90
3069;DHT22;1545;51.728;8.796;2023-09-19T14:45:28;21.40;68.20
3069;DHT22;1545;51.728;8.796;2023-09-19T14:47:56;21.40;68.50
3069;DHT22;1545;51.728;8.796;2023-09-19T14:50:22;21.30;67.30
3069;DHT22;1545;51.728;8.796;2023-09-19T14:52:48;21.30;67.40
3069;DHT22;1545;51.728;8.796;2023-09-19T14:55:15;21.40;68.70
3069;DHT22;1545;51.728;8.796;2023-09-19T14:57:42;21.40;68.60
3069;DHT22;1545;51.728;8.796;2023-09-19T15:00:12;21.50;68.90
3069;DHT22;1545;51.728;8.796;2023-09-19T15:02:39;21.50;68.80
3069;DHT22;1545;51.728;8.796;2023-09-19T15:05:06;21.50;69.20
3069;DHT22;1545;51.728;8.796;2023-09-19T15:07:34;21.40;69.70
3069;DHT22;1545;51.728;8.796;2023-09-19T15:10:02;21.30;69.60
3069;DHT22;1545;51.728;8.796;2023-09-19T15:12:27;21.30;69.90
3069;DHT22;1545;51.728;8.796;2023-09-19T15:14:54;21.40;68.90
3069;DHT22;1545;51.728;8.796;2023-09-19T15:17:20;21.30;69.20
3069;DHT22;1545;51.728;8.796;2023-09-19T15:19:46;21.00;69.40
3069;DHT22;1545;51.728;8.796;2023-09-19T15:22:11;20.80;69.40
3069;DHT22;1545;51.728;8.796;2023-09-19T15:24:38;20.60;71.20
3069;DHT22;1545;51.728;8.796;2023-09-19T15:27:03;20.50;70.80
3069;DHT22;1545;51.728;8.796;2023-09-19T15:29:29;20.50;71.00
3069;DHT22;1545;51.728;8.796;2023-09-19T15:31:55;20.60;71.30
3069;DHT22;1545;51.728;8.796;2023-09-19T15:34:24;20.60;71.50
3069;DHT22;1545;51.728;8.796;2023-09-19T15:36:50;20.60;71.60
3069;DHT22;1545;51.728;8.796;2023-09-19T15:39:16;20.60;70.40
3069;DHT22;1545;51.728;8.796;2023-09-19T15:41:45;20.60;70.30
3069;DHT22;1545;51.728;8.796;2023-09-19T15:44:19;20.40;69.20
3069;DHT22;1545;51.728;8.796;2023-09-19T15:46:45;20.40;69.50
3069;DHT22;1545;51.728;8.796;2023-09-19T15:49:11;20.40;68.00
3069;DHT22;1545;51.728;8.796;2023-09-19T15:51:38;20.30;68.80
3069;DHT22;1545;51.728;8.796;2023-09-19T15:54:11;20.30;68.90
3069;DHT22;1545;51.728;8.796;2023-09-19T15:56:39;20.20;69.40
3069;DHT22;1545;51.728;8.796;2023-09-19T15:59:06;20.20;69.30
3069;DHT22;1545;51.728;8.796;2023-09-19T16:01:32;20.20;69.20
3069;DHT22;1545;51.728;8.796;2023-09-19T16:03:58;20.10;69.20
3069;DHT22;1545;51.728;8.796;2023-09-19T16:06:29;20.20;69.60
3069;DHT22;1545;51.728;8.796;2023-09-19T16:08:56;20.20;69.80
3069;DHT22;1545;51.728;8.796;2023-09-19T16:11:23;20.20;70.10
3069;DHT22;1545;51.728;8.796;2023-09-19T16:13:50;20.10;70.20
3069;DHT22;1545;51.728;8.796;2023-09-19T16:16:17;20.10;70.10
3069;DHT22;1545;51.728;8.796;2023-09-19T16:21:14;20.10;70.90
3069;DHT22;1545;51.728;8.796;2023-09-19T16:23:40;20.00;71.30
3069;DHT22;1545;51.728;8.796;2023-09-19T16:26:09;20.00;71.50
3069;DHT22;1545;51.728;8.796;2023-09-19T16:28:39;20.00;72.10
3069;DHT22;1545;51.728;8.796;2023-09-19T16:31:06;19.90;71.90
3069;DHT22;1545;51.728;8.796;2023-09-19T16:33:37;19.90;72.30
3069;DHT22;1545;51.728;8.796;2023-09-19T16:36:23;19.80;72.40
3069;DHT22;1545;51.728;8.796;2023-09-19T16:38:49;19.80;72.50
3069;DHT22;1545;51.728;8.796;2023-09-19T16:41:16;19.80;72.60
3069;DHT22;1545;51.728;8.796;2023-09-19T16:43:42;19.80;72.60
3069;DHT22;1545;51.728;8.796;2023-09-19T16:46:09;19.70;73.10
3069;DHT22;1545;51.728;8.796;2023-09-19T16:48:41;19.70;73.00
3069;DHT22;1545;51.728;8.796;2023-09-19T16:51:09;19.60;73.40
3069;DHT22;1545;51.728;8.796;2023-09-19T16:53:35;19.50;74.20
3069;DHT22;1545;51.728;8.796;2023-09-19T16:56:06;19.40;74.20
3069;DHT22;1545;51.728;8.796;2023-09-19T16:58:37;19.30;74.60